sensor_id;sensor_type;location;lat;lon;timestamp;pressure;altitude;pressure_sealevel;temperature;humidity
49825;BME280;35714;55.708;37.478;2022-10-31T00:01:15;97712.34;;;1.29;55.03
49825;BME280;35714;55.708;37.478;2022-10-31T00:03:42;97714.22;;;1.22;55.04
49825;BME280;35714;55.708;37.478;2022-10-31T00:06:07;97712.78;;;1.26;55.15
49825;BME280;35714;55.708;37.478;2022-10-31T00:08:33;97698.06;;;1.17;55.07
49825;BME280;35714;55.708;37.478;2022-10-31T00:10:59;97705.22;;;1.16;55.39
49825;BME280;35714;55.708;37.478;2022-10-31T00:13:25;97708.28;;;1.20;55.28
49825;BME280;35714;55.708;37.478;2022-10-31T00:15:54;97692.22;;;1.26;54.47
49825;BME280;35714;55.708;37.478;2022-10-31T00:18:20;97694.09;;;1.26;54.46
49825;BME280;35714;55.708;37.478;2022-10-31T00:20:45;97686.06;;;1.26;54.91
49825;BME280;35714;55.708;37.478;2022-10-31T00:23:11;97692.59;;;1.30;54.58
49825;BME280;35714;55.708;37.478;2022-10-31T00:25:38;97685.06;;;1.46;53.75
49825;BME280;35714;55.708;37.478;2022-10-31T00:28:06;97677.34;;;1.37;53.96
49825;BME280;35714;55.708;37.478;2022-10-31T00:30:33;97686.75;;;1.40;53.61
49825;BME280;35714;55.708;37.478;2022-10-31T00:32:59;97670.72;;;1.40;53.73
49825;BME280;35714;55.708;37.478;2022-10-31T00:35:24;97673.25;;;1.35;54.08
49825;BME280;35714;55.708;37.478;2022-10-31T00:37:51;97685.19;;;1.32;54.07
49825;BME280;35714;55.708;37.478;2022-10-31T00:40:17;97678.09;;;1.19;54.87
49825;BME280;35714;55.708;37.478;2022-10-31T00:42:43;97674.78;;;1.24;54.30
49825;BME280;35714;55.708;37.478;2022-10-31T00:45:09;97674.13;;;1.29;53.99
49825;BME280;35714;55.708;37.478;2022-10-31T00:47:35;97677.84;;;1.28;54.20
49825;BME280;35714;55.708;37.478;2022-10-31T00:50:01;97666.66;;;1.37;53.50
49825;BME280;35714;55.708;37.478;2022-10-31T00:52:28;97659.91;;;1.35;53.78
49825;BME280;35714;55.708;37.478;2022-10-31T00:54:54;97662.97;;;1.38;53.63
49825;BME280;35714;55.708;37.478;2022-10-31T00:57:20;97670.34;;;1.36;53.67
49825;BME280;35714;55.708;37.478;2022-10-31T00:59:46;97669.06;;;1.46;53.03
49825;BME280;35714;55.708;37.478;2022-10-31T01:02:12;97676.91;;;1.40;53.38
49825;BME280;35714;55.708;37.478;2022-10-31T01:04:38;97668.75;;;1.35;53.49
49825;BME280;35714;55.708;37.478;2022-10-31T01:07:03;97676.31;;;1.38;53.39
49825;BME280;35714;55.708;37.478;2022-10-31T01:09:29;97662.50;;;1.41;53.10
49825;BME280;35714;55.708;37.478;2022-10-31T01:11:55;97681.41;;;1.40;53.26
49825;BME280;35714;55.708;37.478;2022-10-31T01:14:22;97658.88;;;1.36;53.26
49825;BME280;35714;55.708;37.478;2022-10-31T01:16:48;97669.19;;;1.32;53.89
49825;BME280;35714;55.708;37.478;2022-10-31T01:19:13;97657.63;;;1.38;53.49
49825;BME280;35714;55.708;37.478;2022-10-31T01:21:39;97669.94;;;1.39;53.54
49825;BME280;35714;55.708;37.478;2022-10-31T01:24:05;97662.78;;;1.33;53.89
49825;BME280;35714;55.708;37.478;2022-10-31T01:26:32;97667.97;;;1.28;54.43
49825;BME280;35714;55.708;37.478;2022-10-31T01:29:05;97668.78;;;1.29;54.75
49825;BME280;35714;55.708;37.478;2022-10-31T01:31:34;97666.94;;;1.29;55.04
49825;BME280;35714;55.708;37.478;2022-10-31T01:34:00;97669.19;;;1.32;55.07
49825;BME280;35714;55.708;37.478;2022-10-31T01:36:29;97674.91;;;1.36;54.79
49825;BME280;35714;55.708;37.478;2022-10-31T01:38:57;97673.66;;;1.38;55.05
49825;BME280;35714;55.708;37.478;2022-10-31T01:41:27;97674.31;;;1.34;55.61
49825;BME280;35714;55.708;37.478;2022-10-31T01:43:58;97686.53;;;1.41;55.66
49825;BME280;35714;55.708;37.478;2022-10-31T01:46:31;97684.38;;;1.32;56.59
49825;BME280;35714;55.708;37.478;2022-10-31T01:49:00;97673.03;;;1.36;56.50
49825;BME280;35714;55.708;37.478;2022-10-31T01:51:31;97675.09;;;1.34;57.14
49825;BME280;35714;55.708;37.478;2022-10-31T01:54:02;97686.28;;;1.24;57.75
49825;BME280;35714;55.708;37.478;2022-10-31T01:56:30;97681.97;;;1.23;58.44
49825;BME280;35714;55.708;37.478;2022-10-31T01:58:58;97679.09;;;1.25;58.71
49825;BME280;35714;55.708;37.478;2022-10-31T02:01:25;97689.84;;;1.12;59.69
49825;BME280;35714;55.708;37.478;2022-10-31T02:03:51;97696.09;;;1.05;60.28
49825;BME280;35714;55.708;37.478;2022-10-31T02:06:42;97687.03;;;1.06;61.02
49825;BME280;35714;55.708;37.478;2022-10-31T02:09:12;97697.38;;;0.96;62.36
49825;BME280;35714;55.708;37.478;2022-10-31T02:11:38;97684.28;;;0.88;62.90
49825;BME280;35714;55.708;37.478;2022-10-31T02:14:04;97694.53;;;0.91;63.41
49825;BME280;35714;55.708;37.478;2022-10-31T02:16:50;97689.44;;;0.83;63.67
49825;BME280;35714;55.708;37.478;2022-10-31T02:22:29;97711.53;;;0.65;64.93
49825;BME280;35714;55.708;37.478;2022-10-31T02:33:52;97696.00;;;0.55;66.72
49825;BME280;35714;55.708;37.478;2022-10-31T02:36:31;97689.44;;;0.51;67.22
49825;BME280;35714;55.708;37.478;2022-10-31T02:39:20;97687.78;;;0.50;67.36
49825;BME280;35714;55.708;37.478;2022-10-31T02:41:55;97686.81;;;0.38;68.03
49825;BME280;35714;55.708;37.478;2022-10-31T02:47:14;97682.97;;;0.33;68.51
49825;BME280;35714;55.708;37.478;2022-10-31T02:52:25;97694.88;;;0.24;69.61
49825;BME280;35714;55.708;37.478;2022-10-31T02:54:53;97686.63;;;0.32;69.08
49825;BME280;35714;55.708;37.478;2022-10-31T02:57:24;97689.72;;;0.29;69.49
49825;BME280;35714;55.708;37.478;2022-10-31T03:00:00;97687.25;;;0.34;69.47
49825;BME280;35714;55.708;37.478;2022-10-31T03:11:04;97689.91;;;0.34;69.07
49825;BME280;35714;55.708;37.478;2022-10-31T03:16:59;97690.75;;;0.35;68.87
49825;BME280;35714;55.708;37.478;2022-10-31T03:19:22;97706.31;;;0.31;69.21
49825;BME280;35714;55.708;37.478;2022-10-31T03:21:56;97685.00;;;0.31;69.00
49825;BME280;35714;55.708;37.478;2022-10-31T03:24:26;97697.31;;;0.32;68.80
49825;BME280;35714;55.708;37.478;2022-10-31T03:26:55;97695.09;;;0.23;68.90
49825;BME280;35714;55.708;37.478;2022-10-31T03:29:26;97686.25;;;0.29;68.62
49825;BME280;35714;55.708;37.478;2022-10-31T03:32:03;97702.63;;;0.32;68.47
49825;BME280;35714;55.708;37.478;2022-10-31T03:34:33;97699.78;;;0.27;68.45
49825;BME280;35714;55.708;37.478;2022-10-31T03:37:03;97695.31;;;0.21;69.09
49825;BME280;35714;55.708;37.478;2022-10-31T03:39:32;97701.88;;;0.25;69.15
49825;BME280;35714;55.708;37.478;2022-10-31T03:42:15;97690.75;;;0.35;68.22
49825;BME280;35714;55.708;37.478;2022-10-31T03:44:46;97689.31;;;0.32;68.56
49825;BME280;35714;55.708;37.478;2022-10-31T03:47:12;97695.66;;;0.31;68.52
49825;BME280;35714;55.708;37.478;2022-10-31T03:49:38;97688.88;;;0.35;68.50
49825;BME280;35714;55.708;37.478;2022-10-31T03:54:41;97698.53;;;0.37;67.90
49825;BME280;35714;55.708;37.478;2022-10-31T03:57:27;97682.53;;;0.37;68.02
49825;BME280;35714;55.708;37.478;2022-10-31T04:00:06;97700.13;;;0.44;67.65
49825;BME280;35714;55.708;37.478;2022-10-31T04:02:51;97695.25;;;0.34;68.05
49825;BME280;35714;55.708;37.478;2022-10-31T04:05:20;97708.34;;;0.43;67.52
49825;BME280;35714;55.708;37.478;2022-10-31T04:07:50;97710.75;;;0.51;67.21
49825;BME280;35714;55.708;37.478;2022-10-31T04:10:18;97708.53;;;0.48;67.27
49825;BME280;35714;55.708;37.478;2022-10-31T04:12:49;97722.28;;;0.45;67.74
49825;BME280;35714;55.708;37.478;2022-10-31T04:15:23;97709.13;;;0.50;67.31
49825;BME280;35714;55.708;37.478;2022-10-31T04:17:50;97708.34;;;0.43;67.56
49825;BME280;35714;55.708;37.478;2022-10-31T04:20:18;97717.75;;;0.52;67.54
49825;BME280;35714;55.708;37.478;2022-10-31T04:22:44;97724.31;;;0.49;67.86
49825;BME280;35714;55.708;37.478;2022-10-31T04:25:10;97705.44;;;0.51;67.53
49825;BME280;35714;55.708;37.478;2022-10-31T04:27:38;97723.69;;;0.54;67.70
49825;BME280;35714;55.708;37.478;2022-10-31T04:30:07;97729.63;;;0.49;67.75
49825;BME280;35714;55.708;37.478;2022-10-31T04:32:35;97730.66;;;0.48;68.32
49825;BME280;35714;55.708;37.478;2022-10-31T04:35:01;97726.94;;;0.56;67.35
49825;BME280;35714;55.708;37.478;2022-10-31T04:37:29;97737.84;;;0.48;67.58
49825;BME280;35714;55.708;37.478;2022-10-31T04:39:55;97744.00;;;0.48;67.87
49825;BME280;35714;55.708;37.478;2022-10-31T04:42:55;97743.38;;;0.53;67.71
49825;BME280;35714;55.708;37.478;2022-10-31T04:45:21;97745.59;;;0.56;67.74
49825;BME280;35714;55.708;37.478;2022-10-31T04:47:50;97744.00;;;0.55;67.84
49825;BME280;35714;55.708;37.478;2022-10-31T04:50:16;97743.53;;;0.58;68.17
49825;BME280;35714;55.708;37.478;2022-10-31T04:52:44;97749.66;;;0.65;68.33
49825;BME280;35714;55.708;37.478;2022-10-31T04:55:13;97759.06;;;0.75;67.89
49825;BME280;35714;55.708;37.478;2022-10-31T04:57:49;97770.97;;;0.79;67.50
49825;BME280;35714;55.708;37.478;2022-10-31T05:00:18;97770.28;;;0.83;67.29
49825;BME280;35714;55.708;37.478;2022-10-31T05:02:53;97768.63;;;0.89;66.73
49825;BME280;35714;55.708;37.478;2022-10-31T05:05:21;97760.06;;;0.80;66.86
49825;BME280;35714;55.708;37.478;2022-10-31T05:07:48;97773.00;;;0.77;66.84
49825;BME280;35714;55.708;37.478;2022-10-31T05:10:20;97769.56;;;0.69;67.37
49825;BME280;35714;55.708;37.478;2022-10-31T05:12:50;97780.44;;;0.68;67.41
49825;BME280;35714;55.708;37.478;2022-10-31T05:15:35;97781.03;;;0.70;67.85
49825;BME280;35714;55.708;37.478;2022-10-31T05:18:09;97793.50;;;0.83;67.21
49825;BME280;35714;55.708;37.478;2022-10-31T05:20:58;97789.84;;;0.77;67.06
49825;BME280;35714;55.708;37.478;2022-10-31T05:23:33;97796.81;;;0.78;66.56
49825;BME280;35714;55.708;37.478;2022-10-31T05:25:59;97800.53;;;0.70;67.36
49825;BME280;35714;55.708;37.478;2022-10-31T05:28:25;97806.69;;;0.71;67.55
49825;BME280;35714;55.708;37.478;2022-10-31T05:30:50;97812.41;;;0.75;68.25
49825;BME280;35714;55.708;37.478;2022-10-31T05:33:16;97814.00;;;0.89;68.10
49825;BME280;35714;55.708;37.478;2022-10-31T05:36:00;97809.03;;;0.99;67.22
49825;BME280;35714;55.708;37.478;2022-10-31T05:38:32;97819.72;;;0.99;67.23
49825;BME280;35714;55.708;37.478;2022-10-31T05:41:07;97827.28;;;1.02;67.63
49825;BME280;35714;55.708;37.478;2022-10-31T05:43:33;97829.31;;;1.07;67.30
49825;BME280;35714;55.708;37.478;2022-10-31T05:46:01;97843.66;;;1.13;67.72
49825;BME280;35714;55.708;37.478;2022-10-31T05:48:55;97837.81;;;1.29;66.58
49825;BME280;35714;55.708;37.478;2022-10-31T05:51:40;97845.03;;;1.22;66.71
49825;BME280;35714;55.708;37.478;2022-10-31T05:54:07;97843.66;;;1.13;67.21
49825;BME280;35714;55.708;37.478;2022-10-31T05:56:33;97854.94;;;1.15;67.58
49825;BME280;35714;55.708;37.478;2022-10-31T05:58:59;97863.69;;;1.29;67.74
49825;BME280;35714;55.708;37.478;2022-10-31T06:01:26;97868.75;;;1.43;67.74
49825;BME280;35714;55.708;37.478;2022-10-31T06:03:52;97876.50;;;1.52;67.09
49825;BME280;35714;55.708;37.478;2022-10-31T06:06:19;97882.88;;;1.51;66.98
49825;BME280;35714;55.708;37.478;2022-10-31T06:08:45;97875.81;;;1.63;66.94
49825;BME280;35714;55.708;37.478;2022-10-31T06:11:17;97890.97;;;1.69;67.16
49825;BME280;35714;55.708;37.478;2022-10-31T06:14:00;97896.72;;;1.73;66.81
49825;BME280;35714;55.708;37.478;2022-10-31T06:16:34;97903.69;;;1.74;66.56
49825;BME280;35714;55.708;37.478;2022-10-31T06:19:16;97908.84;;;1.75;66.45
49825;BME280;35714;55.708;37.478;2022-10-31T06:21:41;97914.16;;;1.75;66.76
49825;BME280;35714;55.708;37.478;2022-10-31T06:24:08;97916.00;;;1.82;66.75
49825;BME280;35714;55.708;37.478;2022-10-31T06:26:51;97931.75;;;1.90;67.10
49825;BME280;35714;55.708;37.478;2022-10-31T06:29:17;97936.63;;;1.99;66.99
49825;BME280;35714;55.708;37.478;2022-10-31T06:32:01;97937.19;;;2.08;66.88
49825;BME280;35714;55.708;37.478;2022-10-31T06:34:28;97938.19;;;2.14;66.80
49825;BME280;35714;55.708;37.478;2022-10-31T06:36:54;97950.47;;;2.22;66.90
49825;BME280;35714;55.708;37.478;2022-10-31T06:39:23;97947.56;;;2.23;66.50
49825;BME280;35714;55.708;37.478;2022-10-31T06:41:49;97959.03;;;2.30;66.40
49825;BME280;35714;55.708;37.478;2022-10-31T06:44:17;97969.06;;;2.35;66.90
49825;BME280;35714;55.708;37.478;2022-10-31T06:46:59;97976.59;;;2.45;66.66
49825;BME280;35714;55.708;37.478;2022-10-31T06:49:40;97980.28;;;2.50;66.89
49825;BME280;35714;55.708;37.478;2022-10-31T06:52:14;97991.91;;;2.63;66.17
49825;BME280;35714;55.708;37.478;2022-10-31T06:54:40;97980.56;;;2.67;66.29
49825;BME280;35714;55.708;37.478;2022-10-31T06:57:06;98003.06;;;2.78;66.13
49825;BME280;35714;55.708;37.478;2022-10-31T06:59:32;97997.50;;;2.80;66.35
49825;BME280;35714;55.708;37.478;2022-10-31T07:02:12;97992.25;;;2.92;66.24
49825;BME280;35714;55.708;37.478;2022-10-31T07:04:41;98001.66;;;3.01;65.71
49825;BME280;35714;55.708;37.478;2022-10-31T07:07:07;98016.06;;;3.00;65.55
49825;BME280;35714;55.708;37.478;2022-10-31T07:09:34;98016.06;;;3.00;65.46
49825;BME280;35714;55.708;37.478;2022-10-31T07:12:02;98027.38;;;3.02;65.77
49825;BME280;35714;55.708;37.478;2022-10-31T07:14:30;98039.28;;;3.06;65.78
49825;BME280;35714;55.708;37.478;2022-10-31T07:16:55;98036.16;;;3.09;65.69
49825;BME280;35714;55.708;37.478;2022-10-31T07:19:27;98053.25;;;3.08;65.88
49825;BME280;35714;55.708;37.478;2022-10-31T07:21:54;98059.38;;;3.15;66.40
49825;BME280;35714;55.708;37.478;2022-10-31T07:24:22;98052.41;;;3.33;66.80
49825;BME280;35714;55.708;37.478;2022-10-31T07:27:07;98065.38;;;3.54;65.85
49825;BME280;35714;55.708;37.478;2022-10-31T07:29:33;98073.13;;;3.63;65.49
49825;BME280;35714;55.708;37.478;2022-10-31T07:31:59;98078.78;;;3.73;65.41
49825;BME280;35714;55.708;37.478;2022-10-31T07:34:27;98096.00;;;3.84;65.23
49825;BME280;35714;55.708;37.478;2022-10-31T07:37:13;98102.31;;;3.89;64.49
49825;BME280;35714;55.708;37.478;2022-10-31T07:39:38;98102.06;;;3.91;64.47
49825;BME280;35714;55.708;37.478;2022-10-31T07:42:05;98115.84;;;3.94;64.00
49825;BME280;35714;55.708;37.478;2022-10-31T07:44:32;98121.81;;;3.96;64.35
49825;BME280;35714;55.708;37.478;2022-10-31T07:47:12;98130.00;;;4.02;63.99
49825;BME280;35714;55.708;37.478;2022-10-31T07:50:09;98135.59;;;4.00;63.59
49825;BME280;35714;55.708;37.478;2022-10-31T07:53:09;98150.72;;;3.94;63.99
49825;BME280;35714;55.708;37.478;2022-10-31T07:55:58;98145.34;;;3.94;64.29
49825;BME280;35714;55.708;37.478;2022-10-31T07:58:28;98167.56;;;4.02;64.18
49825;BME280;35714;55.708;37.478;2022-10-31T08:00:57;98158.19;;;4.11;64.26
49825;BME280;35714;55.708;37.478;2022-10-31T08:03:32;98151.00;;;4.23;64.36
49825;BME280;35714;55.708;37.478;2022-10-31T08:06:16;98166.25;;;4.41;63.98
49825;BME280;35714;55.708;37.478;2022-10-31T08:09:05;98173.94;;;4.56;63.11
49825;BME280;35714;55.708;37.478;2022-10-31T08:11:31;98172.63;;;4.59;62.40
49825;BME280;35714;55.708;37.478;2022-10-31T08:13:59;98178.16;;;4.64;62.49
49825;BME280;35714;55.708;37.478;2022-10-31T08:16:26;98175.47;;;4.64;61.31
49825;BME280;35714;55.708;37.478;2022-10-31T08:18:59;98188.50;;;4.60;61.33
49825;BME280;35714;55.708;37.478;2022-10-31T08:21:24;98194.03;;;4.65;61.56
49825;BME280;35714;55.708;37.478;2022-10-31T08:23:50;98198.47;;;4.72;61.65
49825;BME280;35714;55.708;37.478;2022-10-31T08:26:19;98211.22;;;4.76;61.41
49825;BME280;35714;55.708;37.478;2022-10-31T08:28:44;98218.59;;;4.81;61.15
49825;BME280;35714;55.708;37.478;2022-10-31T08:31:11;98219.00;;;4.84;61.69
49825;BME280;35714;55.708;37.478;2022-10-31T08:33:39;98222.16;;;4.93;60.88
49825;BME280;35714;55.708;37.478;2022-10-31T08:36:23;98226.63;;;4.99;61.22
49825;BME280;35714;55.708;37.478;2022-10-31T08:38:58;98218.69;;;5.04;60.37
49825;BME280;35714;55.708;37.478;2022-10-31T08:41:24;98222.00;;;5.06;60.11
49825;BME280;35714;55.708;37.478;2022-10-31T08:43:50;98232.16;;;5.16;59.60
49825;BME280;35714;55.708;37.478;2022-10-31T08:46:16;98245.03;;;5.26;59.45
49825;BME280;35714;55.708;37.478;2022-10-31T08:48:43;98257.69;;;5.37;58.39
49825;BME280;35714;55.708;37.478;2022-10-31T08:51:09;98252.47;;;5.42;58.44
49825;BME280;35714;55.708;37.478;2022-10-31T08:53:36;98247.91;;;5.55;58.36
49825;BME280;35714;55.708;37.478;2022-10-31T08:56:22;98260.81;;;5.76;58.00
49825;BME280;35714;55.708;37.478;2022-10-31T08:58:48;98246.06;;;5.91;57.32
49825;BME280;35714;55.708;37.478;2022-10-31T09:01:14;98253.69;;;5.94;56.64
49825;BME280;35714;55.708;37.478;2022-10-31T09:03:41;98264.44;;;5.94;54.51
49825;BME280;35714;55.708;37.478;2022-10-31T09:06:09;98268.06;;;5.88;55.76
49825;BME280;35714;55.708;37.478;2022-10-31T09:08:35;98276.59;;;5.85;55.59
49825;BME280;35714;55.708;37.478;2022-10-31T09:11:02;98279.06;;;5.74;55.75
49825;BME280;35714;55.708;37.478;2022-10-31T09:13:47;98274.25;;;5.65;55.96
49825;BME280;35714;55.708;37.478;2022-10-31T09:16:31;98290.22;;;5.59;55.89
49825;BME280;35714;55.708;37.478;2022-10-31T09:18:57;98286.16;;;5.57;56.50
49825;BME280;35714;55.708;37.478;2022-10-31T09:21:23;98292.00;;;5.54;56.15
49825;BME280;35714;55.708;37.478;2022-10-31T09:23:49;98292.69;;;5.49;56.47
49825;BME280;35714;55.708;37.478;2022-10-31T09:26:14;98290.34;;;5.53;56.90
49825;BME280;35714;55.708;37.478;2022-10-31T09:28:45;98299.84;;;5.67;56.96
49825;BME280;35714;55.708;37.478;2022-10-31T09:31:13;98300.09;;;5.77;55.11
49825;BME280;35714;55.708;37.478;2022-10-31T09:33:58;98310.09;;;6.36;56.19
49825;BME280;35714;55.708;37.478;2022-10-31T09:36:30;98303.66;;;7.76;54.74
49825;BME280;35714;55.708;37.478;2022-10-31T09:38:56;98310.19;;;8.48;52.12
49825;BME280;35714;55.708;37.478;2022-10-31T09:44:24;98309.44;;;8.36;48.70
49825;BME280;35714;55.708;37.478;2022-10-31T09:47:23;98315.28;;;8.27;49.27
49825;BME280;35714;55.708;37.478;2022-10-31T09:50:24;98341.06;;;8.35;49.67
49825;BME280;35714;55.708;37.478;2022-10-31T09:55:37;98353.47;;;7.85;48.58
49825;BME280;35714;55.708;37.478;2022-10-31T09:58:05;98362.75;;;7.32;49.36
49825;BME280;35714;55.708;37.478;2022-10-31T10:00:31;98357.22;;;6.98;50.52
49825;BME280;35714;55.708;37.478;2022-10-31T10:03:13;98373.75;;;6.90;50.72
49825;BME280;35714;55.708;37.478;2022-10-31T10:06:04;98375.06;;;7.28;50.77
49825;BME280;35714;55.708;37.478;2022-10-31T10:08:52;98376.94;;;7.85;49.52
49825;BME280;35714;55.708;37.478;2022-10-31T10:22:38;98419.63;;;7.59;48.89
49825;BME280;35714;55.708;37.478;2022-10-31T10:30:21;98429.50;;;6.30;52.77
49825;BME280;35714;55.708;37.478;2022-10-31T10:32:51;98431.78;;;6.14;54.05
49825;BME280;35714;55.708;37.478;2022-10-31T10:37:54;98427.78;;;7.47;54.00
49825;BME280;35714;55.708;37.478;2022-10-31T10:40:23;98428.06;;;7.91;52.32
49825;BME280;35714;55.708;37.478;2022-10-31T10:43:12;98433.94;;;7.88;51.27
49825;BME280;35714;55.708;37.478;2022-10-31T10:46:12;98432.94;;;7.37;51.50
49825;BME280;35714;55.708;37.478;2022-10-31T10:51:42;98457.53;;;7.00;53.06
49825;BME280;35714;55.708;37.478;2022-10-31T10:57:11;98446.13;;;7.62;50.89
49825;BME280;35714;55.708;37.478;2022-10-31T10:59:44;98425.28;;;7.57;51.03
49825;BME280;35714;55.708;37.478;2022-10-31T11:02:22;98449.94;;;7.49;51.15
49825;BME280;35714;55.708;37.478;2022-10-31T11:04:54;98432.75;;;7.27;50.45
49825;BME280;35714;55.708;37.478;2022-10-31T11:07:20;98434.09;;;7.00;51.08
49825;BME280;35714;55.708;37.478;2022-10-31T11:09:46;98437.84;;;6.76;51.67
49825;BME280;35714;55.708;37.478;2022-10-31T11:12:25;98427.78;;;6.59;52.30
49825;BME280;35714;55.708;37.478;2022-10-31T11:14:57;98425.53;;;6.44;52.33
49825;BME280;35714;55.708;37.478;2022-10-31T11:17:32;98419.78;;;6.41;52.65
49825;BME280;35714;55.708;37.478;2022-10-31T11:22:43;98440.47;;;6.17;52.51
49825;BME280;35714;55.708;37.478;2022-10-31T11:27:46;98454.56;;;6.00;52.03
49825;BME280;35714;55.708;37.478;2022-10-31T11:30:14;98447.25;;;5.89;52.30
49825;BME280;35714;55.708;37.478;2022-10-31T11:32:50;98447.25;;;5.89;52.10
49825;BME280;35714;55.708;37.478;2022-10-31T11:35:19;98455.97;;;5.72;53.04
49825;BME280;35714;55.708;37.478;2022-10-31T11:37:50;98462.25;;;5.66;52.27
49825;BME280;35714;55.708;37.478;2022-10-31T11:40:20;98475.59;;;5.42;52.99
49825;BME280;35714;55.708;37.478;2022-10-31T11:42:47;98464.38;;;5.27;53.93
49825;BME280;35714;55.708;37.478;2022-10-31T11:45:27;98466.53;;;5.18;54.18
49825;BME280;35714;55.708;37.478;2022-10-31T11:47:55;98461.38;;;5.17;54.52
49825;BME280;35714;55.708;37.478;2022-10-31T11:50:28;98474.47;;;5.13;54.36
49825;BME280;35714;55.708;37.478;2022-10-31T11:52:55;98475.72;;;5.11;54.56
49825;BME280;35714;55.708;37.478;2022-10-31T11:57:56;98483.63;;;5.05;54.94
49825;BME280;35714;55.708;37.478;2022-10-31T12:00:53;98470.66;;;5.21;54.64
49825;BME280;35714;55.708;37.478;2022-10-31T12:06:22;98478.84;;;4.89;55.40
49825;BME280;35714;55.708;37.478;2022-10-31T12:08:49;98490.47;;;4.83;55.29
49825;BME280;35714;55.708;37.478;2022-10-31T12:22:30;98506.19;;;4.54;57.24
49825;BME280;35714;55.708;37.478;2022-10-31T12:41:38;98494.06;;;4.45;57.81
49825;BME280;35714;55.708;37.478;2022-10-31T12:53:00;98513.25;;;4.16;59.92
49825;BME280;35714;55.708;37.478;2022-10-31T12:55:40;98510.63;;;4.10;59.77
49825;BME280;35714;55.708;37.478;2022-10-31T13:00:46;98511.34;;;3.92;60.21
49825;BME280;35714;55.708;37.478;2022-10-31T13:03:22;98523.28;;;3.96;60.42
49825;BME280;35714;55.708;37.478;2022-10-31T13:05:54;98521.16;;;4.05;59.63
49825;BME280;35714;55.708;37.478;2022-10-31T13:08:26;98535.16;;;4.13;59.45
49825;BME280;35714;55.708;37.478;2022-10-31T13:11:02;98526.72;;;4.10;59.60
49825;BME280;35714;55.708;37.478;2022-10-31T13:13:36;98541.19;;;4.09;59.58
49825;BME280;35714;55.708;37.478;2022-10-31T13:16:10;98548.38;;;4.15;59.79
49825;BME280;35714;55.708;37.478;2022-10-31T13:18:46;98556.97;;;4.24;59.63
49825;BME280;35714;55.708;37.478;2022-10-31T13:21:26;98545.53;;;4.35;58.38
49825;BME280;35714;55.708;37.478;2022-10-31T13:23:54;98545.00;;;4.26;58.61
49825;BME280;35714;55.708;37.478;2022-10-31T13:26:38;98565.25;;;4.22;58.84
49825;BME280;35714;55.708;37.478;2022-10-31T13:31:51;98559.28;;;4.20;58.63
49825;BME280;35714;55.708;37.478;2022-10-31T13:34:30;98562.72;;;4.27;58.92
49825;BME280;35714;55.708;37.478;2022-10-31T13:37:04;98561.09;;;4.26;59.16
49825;BME280;35714;55.708;37.478;2022-10-31T13:45:14;98573.41;;;4.41;58.66
49825;BME280;35714;55.708;37.478;2022-10-31T13:47:41;98586.59;;;4.42;58.49
49825;BME280;35714;55.708;37.478;2022-10-31T13:50:28;98583.28;;;4.47;58.42
49825;BME280;35714;55.708;37.478;2022-10-31T13:55:47;98597.28;;;4.49;58.43
49825;BME280;35714;55.708;37.478;2022-10-31T13:58:23;98593.34;;;4.51;58.33
49825;BME280;35714;55.708;37.478;2022-10-31T14:01:20;98606.13;;;4.56;58.80
49825;BME280;35714;55.708;37.478;2022-10-31T14:04:23;98607.16;;;4.55;58.64
49825;BME280;35714;55.708;37.478;2022-10-31T14:07:08;98605.72;;;4.59;58.43
49825;BME280;35714;55.708;37.478;2022-10-31T14:09:37;98612.97;;;4.52;58.38
49825;BME280;35714;55.708;37.478;2022-10-31T14:12:21;98610.31;;;4.45;58.65
49825;BME280;35714;55.708;37.478;2022-10-31T14:14:50;98609.94;;;4.42;59.23
49825;BME280;35714;55.708;37.478;2022-10-31T14:17:25;98609.25;;;4.53;59.17
49825;BME280;35714;55.708;37.478;2022-10-31T14:20:03;98604.53;;;4.48;59.30
49825;BME280;35714;55.708;37.478;2022-10-31T14:22:46;98615.97;;;4.30;59.69
49825;BME280;35714;55.708;37.478;2022-10-31T14:25:25;98611.88;;;4.28;59.76
49825;BME280;35714;55.708;37.478;2022-10-31T14:27:51;98614.13;;;4.24;59.82
49825;BME280;35714;55.708;37.478;2022-10-31T14:30:23;98618.47;;;4.25;60.07
49825;BME280;35714;55.708;37.478;2022-10-31T14:32:55;98634.56;;;4.25;60.19
49825;BME280;35714;55.708;37.478;2022-10-31T14:35:25;98624.88;;;4.24;60.00
49825;BME280;35714;55.708;37.478;2022-10-31T14:38:05;98641.59;;;4.26;60.26
49825;BME280;35714;55.708;37.478;2022-10-31T14:44:03;98641.56;;;4.33;60.26
49825;BME280;35714;55.708;37.478;2022-10-31T14:50:04;98648.53;;;4.41;59.74
49825;BME280;35714;55.708;37.478;2022-10-31T14:52:35;98647.69;;;4.47;59.56
49825;BME280;35714;55.708;37.478;2022-10-31T14:55:06;98653.91;;;4.41;59.44
49825;BME280;35714;55.708;37.478;2022-10-31T14:57:35;98658.06;;;4.37;59.58
49825;BME280;35714;55.708;37.478;2022-10-31T15:00:07;98657.03;;;4.38;59.55
49825;BME280;35714;55.708;37.478;2022-10-31T15:02:41;98672.31;;;4.37;59.28
49825;BME280;35714;55.708;37.478;2022-10-31T15:05:10;98663.00;;;4.40;59.01
49825;BME280;35714;55.708;37.478;2022-10-31T15:07:36;98656.16;;;4.44;59.07
49825;BME280;35714;55.708;37.478;2022-10-31T15:10:19;98663.78;;;4.47;58.70
49825;BME280;35714;55.708;37.478;2022-10-31T15:12:45;98666.31;;;4.42;59.12
49825;BME280;35714;55.708;37.478;2022-10-31T15:15:19;98677.47;;;4.39;59.05
49825;BME280;35714;55.708;37.478;2022-10-31T15:17:48;98672.09;;;4.39;58.82
49825;BME280;35714;55.708;37.478;2022-10-31T15:20:24;98668.78;;;4.37;58.63
49825;BME280;35714;55.708;37.478;2022-10-31T15:22:52;98679.13;;;4.33;58.86
49825;BME280;35714;55.708;37.478;2022-10-31T15:25:21;98680.38;;;4.30;58.96
49825;BME280;35714;55.708;37.478;2022-10-31T15:27:49;98693.56;;;4.39;59.00
49825;BME280;35714;55.708;37.478;2022-10-31T15:30:24;98706.56;;;4.42;58.66
49825;BME280;35714;55.708;37.478;2022-10-31T15:32:50;98699.72;;;4.46;58.22
49825;BME280;35714;55.708;37.478;2022-10-31T15:35:24;98691.66;;;4.46;58.40